createdAt,value
2022-09-26T00:00:09.321Z,100566.34
2022-09-26T00:04:23.005Z,100553.31
2022-09-26T00:08:25.224Z,100553.03
2022-09-26T00:12:26.678Z,100551.34
2022-09-26T00:16:28.999Z,100543.50
2022-09-26T00:20:30.459Z,100548.94
2022-09-26T00:24:32.032Z,100543.38
2022-09-26T00:28:34.233Z,100537.31
2022-09-26T00:32:35.704Z,100528.50
2022-09-26T00:36:38.723Z,100528.28
2022-09-26T00:40:40.494Z,100527.94
2022-09-26T00:44:44.950Z,100511.94
2022-09-26T00:48:51.418Z,100515.31
2022-09-26T00:52:59.409Z,100505.53
2022-09-26T00:57:06.268Z,100493.47
2022-09-26T01:01:09.092Z,100490.34
2022-09-26T01:05:14.664Z,100484.69
2022-09-26T01:09:16.594Z,100484.88
2022-09-26T01:13:18.189Z,100477.75
2022-09-26T01:17:21.451Z,100473.44
2022-09-26T01:21:22.815Z,100478.69
2022-09-26T01:25:45.427Z,100468.28
2022-09-26T01:29:52.948Z,100459.59
2022-09-26T01:34:04.650Z,100456.19
2022-09-26T01:38:33.043Z,100457.75
2022-09-26T01:42:45.901Z,100458.53
2022-09-26T01:47:20.911Z,100446.50
2022-09-26T01:51:35.885Z,100453.56
2022-09-26T01:55:41.892Z,100454.22
2022-09-26T01:59:50.046Z,100450.13
2022-09-26T02:03:57.201Z,100446.56
2022-09-26T02:08:06.854Z,100443.47
2022-09-26T02:12:11.839Z,100438.63
2022-09-26T02:16:26.108Z,100428.00
2022-09-26T02:20:32.595Z,100422.13
2022-09-26T02:24:34.120Z,100415.03
2022-09-26T02:28:36.240Z,100414.03
2022-09-26T02:32:40.352Z,100405.38
2022-09-26T02:36:42.372Z,100407.09
2022-09-26T02:41:02.952Z,100405.50
2022-09-26T02:45:21.853Z,100395.84
2022-09-26T02:49:50.445Z,100399.28
2022-09-26T02:54:09.837Z,100396.78
2022-09-26T02:58:35.895Z,100402.25
2022-09-26T03:02:45.656Z,100387.38
2022-09-26T03:06:56.553Z,100379.25
2022-09-26T03:11:02.858Z,100374.78
2022-09-26T03:15:07.105Z,100369.47
2022-09-26T03:19:16.733Z,100360.41
2022-09-26T03:23:23.169Z,100351.22
2022-09-26T03:27:25.444Z,100350.34
2022-09-26T03:31:28.888Z,100336.09
2022-09-26T03:35:39.951Z,100333.28
2022-09-26T03:39:41.360Z,100326.88
2022-09-26T03:43:49.559Z,100326.19
2022-09-26T03:47:58.195Z,100312.81
2022-09-26T03:52:00.784Z,100306.63
2022-09-26T03:56:07.919Z,100304.31
2022-09-26T04:00:10.020Z,100298.47
2022-09-26T04:04:22.507Z,100294.22
2022-09-26T04:08:24.225Z,100287.50
2022-09-26T04:12:25.742Z,100283.19
2022-09-26T04:16:27.297Z,100266.56
2022-09-26T04:20:35.837Z,100260.13
2022-09-26T04:24:37.431Z,100257.28
2022-09-26T04:28:40.869Z,100269.50
2022-09-26T04:32:43.848Z,100267.63
2022-09-26T04:37:14.486Z,100267.09
2022-09-26T04:41:21.418Z,100267.38
2022-09-26T04:45:24.545Z,100263.06
2022-09-26T04:49:26.070Z,100257.38
2022-09-26T04:53:27.489Z,100254.06
2022-09-26T04:57:41.544Z,100250.25
2022-09-26T05:01:43.245Z,100250.06
2022-09-26T05:05:50.328Z,100245.50
2022-09-26T05:09:53.032Z,100240.25
2022-09-26T05:13:56.002Z,100229.75
2022-09-26T05:18:03.970Z,100236.06
2022-09-26T05:22:05.978Z,100233.59
2022-09-26T05:26:23.197Z,100220.22
2022-09-26T05:30:26.276Z,100220.81
2022-09-26T05:34:28.242Z,100218.28
2022-09-26T05:38:29.893Z,100214.38
2022-09-26T05:42:31.463Z,100208.44
2022-09-26T05:46:34.763Z,100213.66
2022-09-26T05:50:43.988Z,100208.28
2022-09-26T05:54:45.543Z,100206.81
2022-09-26T05:59:16.509Z,100204.22
2022-09-26T06:03:37.151Z,100208.72
2022-09-26T06:07:45.630Z,100212.03
2022-09-26T06:11:58.927Z,100200.56
2022-09-26T06:16:07.354Z,100206.63
2022-09-26T06:20:09.445Z,100194.16
2022-09-26T06:24:13.066Z,100192.06
2022-09-26T06:28:15.824Z,100181.97
2022-09-26T06:32:17.332Z,100185.91
2022-09-26T06:36:38.105Z,100165.50
2022-09-26T06:40:39.757Z,100175.66
2022-09-26T06:44:41.405Z,100173.31
2022-09-26T06:48:58.027Z,100177.28
2022-09-26T06:53:16.619Z,100168.44
2022-09-26T06:57:18.160Z,100159.22
2022-09-26T07:01:19.960Z,100156.44
2022-09-26T07:05:39.906Z,100165.28
2022-09-26T07:09:41.376Z,100166.66
2022-09-26T07:14:01.984Z,100164.81
2022-09-26T07:18:06.388Z,100165.63
2022-09-26T07:22:29.253Z,100152.84
2022-09-26T07:26:30.685Z,100150.81
2022-09-26T07:30:32.536Z,100148.09
2022-09-26T07:34:42.700Z,100132.47
2022-09-26T07:38:48.480Z,100133.22
2022-09-26T07:43:15.192Z,100130.25
2022-09-26T07:47:32.985Z,100121.56
2022-09-26T07:51:36.890Z,100128.47
2022-09-26T07:56:01.016Z,100116.63
2022-09-26T08:00:31.405Z,100115.88
2022-09-26T08:04:41.062Z,100117.16
2022-09-26T08:08:42.587Z,100118.31
2022-09-26T08:13:07.344Z,100125.22
2022-09-26T08:17:20.554Z,100110.75
2022-09-26T08:21:23.084Z,100119.13
2022-09-26T08:25:27.114Z,100123.19
2022-09-26T08:29:37.421Z,100117.78
2022-09-26T08:33:39.104Z,100114.91
2022-09-26T08:37:40.660Z,100113.75
2022-09-26T08:42:13.084Z,100119.19
2022-09-26T08:46:42.462Z,100111.63
2022-09-26T08:51:19.566Z,100108.81
2022-09-26T08:55:25.410Z,100108.00
2022-09-26T08:59:37.765Z,100108.09
2022-09-26T09:04:09.699Z,100106.84
2022-09-26T09:08:22.586Z,100108.38
2022-09-26T09:13:06.541Z,100111.41
2022-09-26T09:17:41.923Z,100099.78
2022-09-26T09:22:11.749Z,100096.75
2022-09-26T09:31:15.543Z,100078.16
2022-09-26T09:35:42.420Z,100072.97
2022-09-26T09:40:17.487Z,100069.56
2022-09-26T09:44:46.804Z,100062.31
2022-09-26T09:48:50.301Z,100066.09
2022-09-26T09:53:13.344Z,100064.25
2022-09-26T09:57:41.092Z,100061.47
2022-09-26T10:01:46.488Z,100062.44
2022-09-26T10:05:58.072Z,100061.66
2022-09-26T10:10:04.789Z,100066.13
2022-09-26T10:14:34.006Z,100054.03
2022-09-26T10:19:06.176Z,100055.19
2022-09-26T10:23:22.148Z,100040.69
2022-09-26T10:27:41.003Z,100041.34
2022-09-26T10:31:45.277Z,100028.19
2022-09-26T10:35:52.679Z,100029.66
2022-09-26T10:40:16.808Z,100023.31
2022-09-26T10:44:34.138Z,100020.75
2022-09-26T10:49:02.489Z,100023.72
2022-09-26T10:53:23.161Z,100017.84
2022-09-26T10:57:34.762Z,100009.16
2022-09-26T11:01:43.149Z,99998.38
2022-09-26T11:05:57.228Z,99995.44
2022-09-26T11:10:08.376Z,99982.19
2022-09-26T11:14:29.106Z,99990.81
2022-09-26T11:18:42.987Z,99980.22
2022-09-26T11:22:51.710Z,99974.66
2022-09-26T11:27:05.955Z,99974.38
2022-09-26T11:31:22.810Z,99970.13
2022-09-26T11:35:34.479Z,99967.06
2022-09-26T11:40:08.603Z,99961.63
2022-09-26T11:44:33.016Z,99958.38
2022-09-26T11:49:02.861Z,99952.44
2022-09-26T11:53:46.787Z,99942.50
2022-09-26T11:58:06.147Z,99936.94
2022-09-26T12:02:34.060Z,99922.25
2022-09-26T12:07:03.506Z,99917.78
2022-09-26T12:11:23.409Z,99911.13
2022-09-26T12:16:09.490Z,99918.19
2022-09-26T12:20:28.193Z,99906.41
2022-09-26T12:24:59.771Z,99900.56
2022-09-26T12:29:28.915Z,99899.03
2022-09-26T12:33:52.004Z,99897.09
2022-09-26T12:38:08.539Z,99887.88
2022-09-26T12:42:12.851Z,99890.50
2022-09-26T12:46:41.602Z,99887.88
2022-09-26T12:51:22.142Z,99883.69
2022-09-26T12:55:35.829Z,99875.97
2022-09-26T13:00:18.488Z,99876.75
2022-09-26T13:04:41.647Z,99872.31
2022-09-26T13:09:13.940Z,99866.13
2022-09-26T13:13:38.567Z,99859.69
2022-09-26T13:17:45.999Z,99853.69
2022-09-26T13:21:56.304Z,99851.50
2022-09-26T13:26:05.842Z,99864.75
2022-09-26T13:30:16.904Z,99868.88
2022-09-26T13:34:28.014Z,99874.75
2022-09-26T13:38:53.888Z,99876.97
2022-09-26T13:43:07.409Z,99869.88
2022-09-26T13:47:25.700Z,99858.00
2022-09-26T13:51:40.115Z,99840.28
2022-09-26T13:55:43.398Z,99836.94
2022-09-26T13:59:51.479Z,99838.81
2022-09-26T14:04:18.838Z,99830.50
2022-09-26T14:08:45.275Z,99820.84
2022-09-26T14:13:08.365Z,99813.69
2022-09-26T14:17:42.207Z,99807.91
2022-09-26T14:22:05.557Z,99799.69
2022-09-26T14:26:11.374Z,99787.56
2022-09-26T14:30:12.753Z,99791.56
2022-09-26T14:34:20.768Z,99791.72
2022-09-26T14:38:22.329Z,99783.75
2022-09-26T14:42:31.941Z,99780.63
2022-09-26T14:46:35.536Z,99787.88
2022-09-26T14:51:03.694Z,99774.72
2022-09-26T14:55:07.463Z,99786.13
2022-09-26T14:59:24.223Z,99780.06
2022-09-26T15:03:25.881Z,99777.16
2022-09-26T15:07:30.936Z,99767.00
2022-09-26T15:11:37.455Z,99765.28
2022-09-26T15:15:58.394Z,99756.91
2022-09-26T15:20:02.788Z,99762.13
2022-09-26T15:24:26.349Z,99752.03
2022-09-26T15:28:30.969Z,99752.84
2022-09-26T15:32:33.532Z,99754.84
2022-09-26T15:36:36.588Z,99743.63
2022-09-26T15:40:38.044Z,99749.50
2022-09-26T15:44:48.341Z,99746.75
2022-09-26T15:48:51.649Z,99748.69
2022-09-26T15:53:09.823Z,99753.84
2022-09-26T15:57:11.500Z,99740.63
2022-09-26T16:01:21.930Z,99741.91
2022-09-26T16:05:23.511Z,99749.34
2022-09-26T16:09:37.414Z,99752.41
2022-09-26T16:13:46.201Z,99734.78
2022-09-26T16:17:53.769Z,99740.72
2022-09-26T16:21:56.621Z,99737.09
2022-09-26T16:25:58.069Z,99737.16
2022-09-26T16:30:04.743Z,99728.69
2022-09-26T16:34:19.848Z,99727.59
2022-09-26T16:38:32.184Z,99727.31
2022-09-26T16:42:33.613Z,99721.53
2022-09-26T16:46:37.602Z,99715.66
2022-09-26T16:50:40.165Z,99721.53
2022-09-26T16:54:41.722Z,99718.31
2022-09-26T16:58:53.047Z,99713.41
2022-09-26T17:02:54.520Z,99715.28
2022-09-26T17:06:59.484Z,99715.28
2022-09-26T17:11:03.496Z,99718.97
2022-09-26T17:15:06.615Z,99708.44
2022-09-26T17:19:12.037Z,99705.94
2022-09-26T17:23:38.242Z,99699.94
2022-09-26T17:27:36.017Z,99703.47
2022-09-26T17:31:38.694Z,99688.88
2022-09-26T17:35:41.825Z,99685.47
2022-09-26T17:39:44.377Z,99683.06
2022-09-26T17:43:45.805Z,99680.34
2022-09-26T17:47:47.489Z,99682.41
2022-09-26T17:51:49.130Z,99676.34
2022-09-26T17:55:52.977Z,99678.69
2022-09-26T17:59:54.806Z,99674.94
2022-09-26T18:04:01.153Z,99670.72
2022-09-26T18:08:23.488Z,99676.81
2022-09-26T18:12:25.440Z,99675.78
2022-09-26T18:16:26.946Z,99667.72
2022-09-26T18:20:37.453Z,99661.59
2022-09-26T18:24:38.872Z,99663.88
2022-09-26T18:28:40.384Z,99659.78
2022-09-26T18:32:44.488Z,99662.00
2022-09-26T18:36:46.663Z,99655.06
2022-09-26T18:40:55.264Z,99646.47
2022-09-26T18:45:05.907Z,99640.75
2022-09-26T18:49:11.990Z,99633.66
2022-09-26T18:53:29.504Z,99631.66
2022-09-26T18:57:57.302Z,99625.53
2022-09-26T19:02:01.230Z,99624.41
2022-09-26T19:06:12.512Z,99623.28
2022-09-26T19:10:20.118Z,99630.19
2022-09-26T19:14:27.586Z,99626.06
2022-09-26T19:18:28.996Z,99631.31
2022-09-26T19:22:31.155Z,99619.78
2022-09-26T19:26:43.390Z,99615.06
2022-09-26T19:30:44.927Z,99612.03
2022-09-26T19:34:52.442Z,99599.28
2022-09-26T19:38:54.114Z,99602.66
2022-09-26T19:42:57.070Z,99585.28
2022-09-26T19:46:59.751Z,99587.59
2022-09-26T19:51:01.443Z,99582.06
2022-09-26T19:55:05.677Z,99577.34
2022-09-26T19:59:09.695Z,99569.81
2022-09-26T20:03:17.755Z,99565.53
2022-09-26T20:07:19.703Z,99564.31
2022-09-26T20:11:22.262Z,99559.06
2022-09-26T20:15:24.375Z,99567.88
2022-09-26T20:19:25.801Z,99556.25
2022-09-26T20:23:27.400Z,99554.47
2022-09-26T20:27:29.428Z,99546.66
2022-09-26T20:31:30.841Z,99547.59
2022-09-26T20:35:36.713Z,99546.94
2022-09-26T20:39:39.382Z,99536.44
2022-09-26T20:43:44.120Z,99529.06
2022-09-26T20:47:45.843Z,99528.59
2022-09-26T20:51:48.256Z,99523.25
2022-09-26T20:55:51.028Z,99517.41
2022-09-26T20:59:52.542Z,99518.69
2022-09-26T21:03:55.412Z,99511.56
2022-09-26T21:07:58.984Z,99511.25
2022-09-26T21:12:01.445Z,99515.59
2022-09-26T21:16:02.976Z,99511.41
2022-09-26T21:20:05.321Z,99502.91
2022-09-26T21:24:31.142Z,99507.16
2022-09-26T21:28:32.587Z,99507.97
2022-09-26T21:32:34.525Z,99508.69
2022-09-26T21:36:40.277Z,99499.41
2022-09-26T21:40:43.724Z,99491.59
2022-09-26T21:44:51.148Z,99498.81
2022-09-26T21:48:53.972Z,99486.47
2022-09-26T21:53:05.092Z,99489.00
2022-09-26T21:57:27.287Z,99482.22
2022-09-26T22:01:28.729Z,99483.56
2022-09-26T22:05:31.260Z,99483.59
2022-09-26T22:09:32.697Z,99473.59
2022-09-26T22:13:36.016Z,99468.19
2022-09-26T22:17:37.505Z,99459.28
2022-09-26T22:21:39.184Z,99453.97
2022-09-26T22:25:42.937Z,99447.09
2022-09-26T22:29:44.558Z,99434.28
2022-09-26T22:33:46.079Z,99429.53
2022-09-26T22:37:47.540Z,99438.13
2022-09-26T22:41:48.997Z,99431.91
2022-09-26T22:45:50.438Z,99427.16
2022-09-26T22:49:51.936Z,99423.91
2022-09-26T22:53:53.351Z,99414.47
2022-09-26T22:57:54.807Z,99408.72
2022-09-26T23:01:57.078Z,99413.75
2022-09-26T23:05:59.480Z,99406.91
2022-09-26T23:10:00.892Z,99411.38
2022-09-26T23:14:02.466Z,99412.47
2022-09-26T23:18:03.940Z,99418.28
2022-09-26T23:22:05.696Z,99415.31
2022-09-26T23:26:07.876Z,99398.97
2022-09-26T23:30:09.895Z,99400.91
2022-09-26T23:34:12.081Z,99390.31
2022-09-26T23:38:13.482Z,99388.19
2022-09-26T23:42:15.086Z,99378.78
2022-09-26T23:46:16.630Z,99369.47
2022-09-26T23:50:18.086Z,99369.81
2022-09-26T23:54:19.495Z,99358.66
2022-09-26T23:58:20.901Z,99352.16
